Time;durP1;ratioP1;P1;durP2;ratioP2;P2;SDS_P1;SDS_P2;PMS_P1;PMS_P2;Temp;Humidity;BMP_temperature;BMP_pressure;BME280_temperature;BME280_humidity;BME280_pressure;Samples;Min_cycle;Max_cycle;Signal;HPM_P1;HPM_P2
2022/01/12 00:02:17;;;;;;;5.88;5.28;;;;;;;;;;5050679;28;20688;-84
2022/01/12 00:04:44;;;;;;;11.25;6.47;;;;;;;;;;5048894;28;20561;-84
2022/01/12 00:07:12;;;;;;;7.80;5.80;;;;;;;;;;5048349;28;20232;-84
2022/01/12 00:09:41;;;;;;;8.95;6.07;;;;;;;;;;5059561;28;20211;-84
2022/01/12 00:12:09;;;;;;;7.20;5.68;;;;;;;;;;5053737;28;20197;-84
2022/01/12 00:14:36;;;;;;;8.40;6.43;;;;;;;;;;5051264;28;20200;-85
2022/01/12 00:17:04;;;;;;;7.63;5.68;;;;;;;;;;5057109;28;20249;-84
2022/01/12 00:19:31;;;;;;;7.75;6.60;;;;;;;;;;5053958;28;20231;-84
2022/01/12 00:21:59;;;;;;;7.00;6.28;;;;;;;;;;5049250;28;20235;-85
2022/01/12 00:24:39;;;;;;;10.18;5.63;;;-0.70;99.90;;;;;;5051449;28;20192;-84
2022/01/12 00:35:25;;;;;;;8.70;5.90;;;-0.90;99.90;;;;;;5039905;28;20204;-84
2022/01/12 00:37:52;;;;;;;9.85;6.18;;;;;;;;;;5055001;28;20207;-84
2022/01/12 00:40:20;;;;;;;8.02;6.95;;;;;;;;;;5044634;28;20616;-84
2022/01/12 00:42:48;;;;;;;7.53;6.30;;;;;;;;;;5055057;28;20581;-84
2022/01/12 00:45:17;;;;;;;8.77;6.05;;;;;;;;;;5048653;28;20278;-84
2022/01/12 00:47:44;;;;;;;7.45;5.80;;;;;;;;;;5057815;28;20235;-85
2022/01/12 00:50:12;;;;;;;8.00;5.45;;;;;;;;;;5052520;28;20207;-84
2022/01/12 00:52:39;;;;;;;9.25;6.03;;;;;;;;;;5051569;28;20204;-84
2022/01/12 00:55:07;;;;;;;8.10;6.45;;;;;;;;;;5053677;28;20257;-84
2022/01/12 00:57:34;;;;;;;7.25;5.63;;;;;;;;;;5056022;28;20286;-84
2022/01/12 01:00:05;;;;;;;8.98;6.30;;;-0.90;99.90;;;;;;5055532;28;20211;-84
2022/01/12 01:02:32;;;;;;;9.95;6.55;;;;;;;;;;5047232;28;20201;-84
2022/01/12 01:05:00;;;;;;;11.52;4.70;;;;;;;;;;5054376;28;20723;-84
2022/01/12 01:07:28;;;;;;;7.88;6.07;;;;;;;;;;5053359;28;20269;-84
2022/01/12 01:10:03;;;;;;;6.85;5.25;;;;;;;;;;5056239;28;20205;-84
2022/01/12 01:12:30;;;;;;;8.63;6.38;;;;;;;;;;5061025;28;20210;-84
2022/01/12 01:15:05;;;;;;;6.25;5.65;;;;;;;;;;5054418;28;20578;-85
2022/01/12 01:25:48;;;;;;;6.57;5.80;;;;;;;;;;5049913;28;20546;-84
2022/01/12 01:28:16;;;;;;;6.25;4.78;;;;;;;;;;5050176;28;20315;-84
2022/01/12 01:30:45;;;;;;;8.23;5.25;;;-0.80;99.90;;;;;;5054936;28;20252;-84
2022/01/12 01:33:16;;;;;;;5.38;4.50;;;-0.80;99.70;;;;;;5050999;28;20257;-84
2022/01/12 01:35:49;;;;;;;6.13;5.15;;;-0.80;99.90;;;;;;5050196;28;20279;-84
2022/01/12 01:38:17;;;;;;;13.98;6.05;;;;;;;;;;5058178;28;20242;-83
2022/01/12 01:40:44;;;;;;;11.38;5.78;;;;;;;;;;5051597;28;21001;-84
2022/01/12 01:43:21;;;;;;;5.25;4.72;;;;;;;;;;5049972;28;20208;-84
2022/01/12 01:54:05;;;;;;;7.10;5.55;;;;;;;;;;5054095;28;20203;-84
2022/01/12 01:56:32;;;;;;;7.65;5.32;;;;;;;;;;5057247;28;20276;-83
2022/01/12 01:58:59;;;;;;;8.52;5.93;;;-0.90;99.90;;;;;;5052826;28;20199;-84
2022/01/12 02:01:26;;;;;;;8.77;6.03;;;;;;;;;;5055456;28;20609;-84
2022/01/12 02:03:57;;;;;;;9.15;6.40;;;-1.00;99.90;;;;;;5055869;28;20656;-84
2022/01/12 02:06:25;;;;;;;7.53;5.57;;;;;;;;;;5049776;28;20222;-83
2022/01/12 02:08:52;;;;;;;7.03;6.03;;;;;;;;;;5057428;28;20208;-83
2022/01/12 02:11:25;;;;;;;6.20;5.15;;;-1.00;99.90;;;;;;5051741;28;20222;-84
2022/01/12 02:13:52;;;;;;;9.93;6.53;;;;;;;;;;5045638;28;20220;-84
2022/01/12 02:16:25;;;;;;;9.10;6.65;;;;;;;;;;5058298;28;20203;-84
2022/01/12 02:19:10;;;;;;;7.32;5.88;;;;;;;;;;5047797;28;20689;-83
2022/01/12 02:35:49;;;;;;;5.93;5.28;;;;;;;;;;5055533;28;20211;-83
2022/01/12 02:41:04;;;;;;;7.38;6.65;;;;;;;;;;5056800;28;20258;-84
2022/01/12 02:50:34;;;;;;;10.30;7.15;;;;;;;;;;5054196;28;20200;-84
2022/01/12 02:54:42;;;;;;;15.25;6.82;;;-1.10;99.90;;;;;;5042728;28;20200;-84
2022/01/12 02:57:10;;;;;;;8.38;7.57;;;;;;;;;;5050397;28;20199;-84
2022/01/12 02:59:39;;;;;;;8.18;6.40;;;;;;;;;;5047660;28;20253;-84
2022/01/12 03:02:23;;;;;;;9.15;6.60;;;;;;;;;;5051901;28;20575;-84
2022/01/12 03:05:07;;;;;;;8.30;6.20;;;;;;;;;;5052712;28;20199;-84
2022/01/12 03:07:37;;;;;;;8.15;5.97;;;;;;;;;;5045721;28;21003;-83
2022/01/12 03:10:07;;;;;;;11.35;6.72;;;-1.30;99.90;;;;;;5044970;28;20193;-83
2022/01/12 03:12:37;;;;;;;8.07;6.72;;;-1.10;99.90;;;;;;5046417;28;20222;-83
2022/01/12 03:15:04;;;;;;;9.40;6.53;;;;;;;;;;5050387;28;20199;-84
2022/01/12 03:17:32;;;;;;;8.68;7.10;;;;;;;;;;5044798;28;20696;-84
2022/01/12 03:19:59;;;;;;;10.15;8.30;;;;;;;;;;5053303;28;20226;-83
2022/01/12 03:22:26;;;;;;;9.88;7.03;;;;;;;;;;5057437;28;20215;-84
2022/01/12 03:24:53;;;;;;;9.88;8.07;;;;;;;;;;5056497;28;20681;-84
2022/01/12 03:27:25;;;;;;;9.80;6.88;;;;;;;;;;5057376;28;20223;-83
2022/01/12 03:29:55;;;;;;;10.80;7.47;;;;;;;;;;5055655;28;20204;-84
2022/01/12 03:32:30;;;;;;;7.18;6.05;;;;;;;;;;5053848;28;20196;-84
2022/01/12 03:35:07;;;;;;;9.30;7.07;;;;;;;;;;5053053;28;20659;-84
2022/01/12 03:37:42;;;;;;;8.90;6.15;;;;;;;;;;5055374;28;20200;-84
2022/01/12 03:40:10;;;;;;;9.05;7.32;;;-1.60;99.90;;;;;;5051939;28;20294;-84
2022/01/12 03:42:39;;;;;;;9.20;7.07;;;-1.70;99.90;;;;;;5046832;28;20199;-84
2022/01/12 03:45:07;;;;;;;10.65;7.63;;;;;;;;;;5051392;28;20196;-84
2022/01/12 03:47:34;;;;;;;14.40;7.95;;;;;;;;;;5053801;28;20232;-84
2022/01/12 03:50:02;;;;;;;8.70;7.30;;;;;;;;;;5056025;28;20239;-84
2022/01/12 03:52:29;;;;;;;12.63;8.73;;;;;;;;;;5054399;28;20208;-83
2022/01/12 03:54:56;;;;;;;10.02;8.25;;;;;;;;;;5054437;28;20219;-84
2022/01/12 03:57:24;;;;;;;12.65;7.78;;;;;;;;;;5053663;28;20623;-84
2022/01/12 03:59:52;;;;;;;8.93;7.45;;;;;;;;;;5052134;28;20208;-84
2022/01/12 04:02:19;;;;;;;10.52;7.68;;;;;;;;;;5048707;28;20230;-84
2022/01/12 04:05:08;;;;;;;12.98;7.70;;;;;;;;;;5045269;28;20204;-84
2022/01/12 04:10:20;;;;;;;8.00;7.13;;;;;;;;;;5050642;28;20673;-84
2022/01/12 04:12:48;;;;;;;11.30;7.65;;;;;;;;;;5061831;28;20227;-84
2022/01/12 04:15:16;;;;;;;11.80;8.93;;;;;;;;;;5055951;28;20266;-84
2022/01/12 04:17:43;;;;;;;11.00;7.82;;;;;;;;;;5055750;28;20236;-84
2022/01/12 04:20:11;;;;;;;11.23;8.25;;;;;;;;;;5051353;28;20203;-84
2022/01/12 04:25:25;;;;;;;8.80;7.95;;;;;;;;;;5051503;28;20212;-84
2022/01/12 04:27:53;;;;;;;11.60;9.18;;;;;;;;;;5057664;28;20227;-84
2022/01/12 04:30:21;;;;;;;9.88;8.75;;;;;;;;;;5053496;28;20611;-84
2022/01/12 04:32:49;;;;;;;13.10;8.45;;;;;;;;;;5054747;28;20421;-84
2022/01/12 04:35:17;;;;;;;9.82;7.32;;;;;;;;;;5047776;28;20207;-84
2022/01/12 04:37:44;;;;;;;12.93;9.35;;;;;;;;;;5051930;28;20301;-84
2022/01/12 04:40:12;;;;;;;10.85;8.02;;;;;;;;;;5054316;28;20257;-84
2022/01/12 04:42:39;;;;;;;10.25;7.18;;;;;;;;;;5055685;28;20203;-84
2022/01/12 04:45:18;;;;;;;10.25;9.02;;;-2.00;99.90;;;;;;5051107;28;20207;-83
2022/01/12 04:48:00;;;;;;;14.00;8.80;;;;;;;;;;5055765;28;20276;-84
2022/01/12 04:50:29;;;;;;;11.05;8.48;;;-2.10;99.90;;;;;;5044618;28;20257;-84
2022/01/12 04:52:57;;;;;;;9.88;7.15;;;;;;;;;;5052401;28;20235;-84
2022/01/12 04:55:24;;;;;;;9.77;7.32;;;;;;;;;;5047184;28;20242;-84
2022/01/12 04:57:52;;;;;;;12.23;8.93;;;;;;;;;;5049492;28;20274;-83
2022/01/12 05:00:21;;;;;;;12.90;8.48;;;;;;;;;;5051211;28;20200;-84
2022/01/12 05:08:34;;;;;;;11.43;8.65;;;;;;;;;;5044012;28;20244;-84
2022/01/12 05:13:49;;;;;;;10.40;8.60;;;-2.10;99.90;;;;;;5039572;28;20666;-84
2022/01/12 05:16:17;;;;;;;10.60;8.55;;;;;;;;;;5049160;28;20203;-84
2022/01/12 05:18:47;;;;;;;10.57;8.90;;;-1.20;99.90;;;;;;5047322;28;20204;-84
2022/01/12 05:21:15;;;;;;;15.98;10.82;;;-2.00;99.90;;;;;;5048516;28;20537;-83
2022/01/12 05:23:42;;;;;;;13.35;9.45;;;;;;;;;;5049514;28;20250;-83
2022/01/12 05:26:10;;;;;;;13.60;9.85;;;;;;;;;;5054180;28;20210;-84
2022/01/12 05:28:38;;;;;;;13.35;10.13;;;;;;;;;;5049232;28;20227;-83
2022/01/12 05:31:07;;;;;;;13.88;8.57;;;-2.00;99.90;;;;;;5055451;28;20192;-83
2022/01/12 05:33:34;;;;;;;12.73;9.50;;;;;;;;;;5052015;28;20211;-84
2022/01/12 05:36:05;;;;;;;12.70;9.85;;;-1.90;99.90;;;;;;5054437;28;20290;-84
2022/01/12 05:38:33;;;;;;;17.13;11.55;;;-1.90;99.90;;;;;;5053817;28;20651;-84
2022/01/12 05:41:04;;;;;;;12.27;8.30;;;-2.00;99.90;;;;;;5050329;28;20203;-83
2022/01/12 05:43:33;;;;;;;12.10;9.70;;;;;;;;;;5055094;28;20209;-83
2022/01/12 05:46:08;;;;;;;12.23;9.20;;;;;;;;;;5057942;28;20207;-83
2022/01/12 05:51:22;;;;;;;14.95;10.30;;;;;;;;;;5055936;28;20216;-84
2022/01/12 05:53:49;;;;;;;13.45;10.35;;;;;;;;;;5055334;28;20275;-84
2022/01/12 05:56:16;;;;;;;15.05;10.10;;;;;;;;;;5060872;28;20208;-84
2022/01/12 05:58:43;;;;;;;15.80;10.80;;;;;;;;;;5054361;28;20678;-83
2022/01/12 06:01:11;;;;;;;17.42;11.35;;;;;;;;;;5058228;28;20956;-84
2022/01/12 06:03:38;;;;;;;15.57;9.88;;;;;;;;;;5049496;28;20215;-84
2022/01/12 06:06:06;;;;;;;15.40;11.23;;;;;;;;;;5050941;28;20199;-84
2022/01/12 06:08:34;;;;;;;14.63;11.23;;;;;;;;;;5049782;28;20227;-84
2022/01/12 06:11:13;;;;;;;16.55;10.70;;;;;;;;;;5054465;28;20756;-85
2022/01/12 06:13:57;;;;;;;17.58;11.32;;;;;;;;;;5049705;28;20200;-86
2022/01/12 06:16:37;;;;;;;13.95;11.70;;;;;;;;;;5047383;28;20289;-85
2022/01/12 06:19:07;;;;;;;16.15;10.38;;;;;;;;;;5048536;28;20317;-86
2022/01/12 06:21:34;;;;;;;18.05;11.30;;;;;;;;;;5054717;28;20217;-86
2022/01/12 06:24:19;;;;;;;15.75;12.27;;;;;;;;;;5057715;28;20196;-86
2022/01/12 06:26:50;;;;;;;20.67;13.50;;;;;;;;;;5051225;28;20692;-86
2022/01/12 06:29:39;;;;;;;18.10;11.50;;;;;;;;;;5058135;28;20227;-86
2022/01/12 06:32:07;;;;;;;16.95;11.55;;;-1.90;99.90;;;;;;5055950;28;20204;-86
2022/01/12 06:34:37;;;;;;;16.70;11.43;;;;;;;;;;5051746;28;20196;-86
2022/01/12 06:37:04;;;;;;;15.23;10.90;;;;;;;;;;5055107;28;20200;-86
2022/01/12 06:39:31;;;;;;;18.42;13.05;;;;;;;;;;5052383;28;20204;-86
2022/01/12 06:42:00;;;;;;;14.10;11.48;;;;;;;;;;5059636;28;20199;-86
2022/01/12 06:44:27;;;;;;;21.42;14.20;;;;;;;;;;5050591;28;20197;-86
2022/01/12 06:46:56;;;;;;;18.90;12.38;;;;;;;;;;5051937;28;20201;-86
2022/01/12 06:49:26;;;;;;;18.10;12.93;;;;;;;;;;5045390;28;20246;-86
2022/01/12 06:51:53;;;;;;;16.90;12.05;;;;;;;;;;5045634;28;20204;-86
2022/01/12 06:54:21;;;;;;;14.10;11.32;;;;;;;;;;5047984;28;20208;-86
2022/01/12 06:56:48;;;;;;;17.98;11.30;;;;;;;;;;5053272;28;20246;-86
2022/01/12 06:59:16;;;;;;;18.73;12.07;;;-1.80;99.90;;;;;;5038199;28;20196;-86
2022/01/12 07:01:44;;;;;;;17.10;11.23;;;;;;;;;;5045678;28;20207;-87
2022/01/12 07:04:11;;;;;;;26.13;14.00;;;;;;;;;;5047572;28;20229;-86
2022/01/12 07:06:38;;;;;;;16.02;11.43;;;;;;;;;;5054855;28;20211;-86
2022/01/12 07:09:06;;;;;;;18.77;12.52;;;;;;;;;;5052684;28;20255;-86
2022/01/12 07:11:34;;;;;;;16.45;13.15;;;;;;;;;;5053220;28;20199;-87
2022/01/12 07:14:04;;;;;;;16.35;12.88;;;;;;;;;;5055909;28;20621;-85
2022/01/12 07:16:35;;;;;;;15.48;13.13;;;;;;;;;;5053900;28;20202;-85
2022/01/12 07:19:03;;;;;;;17.23;13.70;;;;;;;;;;5057503;28;20208;-85
2022/01/12 07:21:34;;;;;;;22.10;12.35;;;;;;;;;;5047328;28;20250;-86
2022/01/12 07:24:03;;;;;;;20.98;13.45;;;;;;;;;;5054282;28;20227;-85
2022/01/12 07:26:40;;;;;;;13.20;11.68;;;;;;;;;;5054537;28;20694;-86
2022/01/12 07:29:09;;;;;;;17.05;11.57;;;;;;;;;;5050373;28;20231;-85
2022/01/12 07:31:39;;;;;;;18.67;13.55;;;;;;;;;;5058931;28;20254;-86
2022/01/12 07:34:31;;;;;;;18.48;12.00;;;;;;;;;;5051752;28;20211;-86
2022/01/12 07:37:00;;;;;;;18.63;14.15;;;;;;;;;;5055953;28;20294;-85
2022/01/12 07:39:27;;;;;;;26.60;11.55;;;;;;;;;;5047899;28;20205;-86
2022/01/12 07:41:54;;;;;;;20.08;12.85;;;;;;;;;;5054749;28;20197;-86
2022/01/12 07:44:24;;;;;;;14.45;11.00;;;;;;;;;;5052243;28;20989;-85
2022/01/12 07:46:53;;;;;;;16.42;12.80;;;-1.90;99.90;;;;;;5056564;28;20211;-85
2022/01/12 07:49:20;;;;;;;19.58;13.52;;;;;;;;;;5052569;28;20599;-85
2022/01/12 07:51:47;;;;;;;19.77;13.27;;;;;;;;;;5059785;28;20629;-86
2022/01/12 07:54:14;;;;;;;17.77;12.60;;;;;;;;;;5056661;28;20200;-84
2022/01/12 07:56:42;;;;;;;15.65;10.65;;;;;;;;;;5052820;28;20780;-84
2022/01/12 07:59:09;;;;;;;20.98;14.10;;;;;;;;;;5055503;28;20212;-84
2022/01/12 08:01:36;;;;;;;16.15;11.73;;;;;;;;;;5055324;28;20327;-85
2022/01/12 08:04:06;;;;;;;14.00;10.43;;;;;;;;;;5053807;28;20286;-84
2022/01/12 08:06:35;;;;;;;14.55;11.30;;;;;;;;;;5058189;28;20207;-84
2022/01/12 08:09:07;;;;;;;15.75;11.95;;;;;;;;;;5054809;28;20346;-84
2022/01/12 08:11:34;;;;;;;15.70;12.30;;;;;;;;;;5053524;28;20569;-85
2022/01/12 08:14:02;;;;;;;16.00;12.23;;;;;;;;;;5054257;28;20273;-84
2022/01/12 08:16:29;;;;;;;21.70;13.70;;;;;;;;;;5058794;28;20280;-84
2022/01/12 08:18:57;;;;;;;16.50;12.25;;;;;;;;;;5056052;28;20199;-84
2022/01/12 08:21:27;;;;;;;21.70;13.20;;;-1.30;99.90;;;;;;5058078;28;20204;-84
2022/01/12 08:23:55;;;;;;;22.83;14.10;;;;;;;;;;5056098;28;20197;-85
2022/01/12 08:26:23;;;;;;;14.05;11.63;;;;;;;;;;5052287;28;20203;-86
2022/01/12 08:28:50;;;;;;;20.08;12.77;;;;;;;;;;5059142;28;20219;-86
2022/01/12 08:31:20;;;;;;;23.20;12.45;;;;;;;;;;5056354;28;20200;-86
2022/01/12 08:33:48;;;;;;;19.70;13.55;;;;;;;;;;5048912;28;20195;-84
2022/01/12 08:36:15;;;;;;;20.27;13.45;;;;;;;;;;5054863;28;20558;-86
2022/01/12 08:38:44;;;;;;;19.30;13.90;;;;;;;;;;5054245;28;20200;-86
2022/01/12 08:41:12;;;;;;;20.38;12.55;;;;;;;;;;5055123;28;20572;-86
2022/01/12 08:46:26;;;;;;;24.48;13.68;;;;;;;;;;5054282;28;20542;-85
2022/01/12 08:48:53;;;;;;;16.95;12.20;;;;;;;;;;5048569;28;20751;-85
2022/01/12 08:51:21;;;;;;;21.17;12.63;;;;;;;;;;5058080;28;20199;-84
2022/01/12 08:53:49;;;;;;;17.20;11.80;;;-0.50;99.90;;;;;;5050885;28;20583;-85
2022/01/12 08:56:16;;;;;;;19.77;13.40;;;;;;;;;;5053104;28;20556;-84
2022/01/12 08:58:44;;;;;;;23.02;14.20;;;;;;;;;;5051349;28;20207;-84
2022/01/12 09:01:11;;;;;;;17.10;12.32;;;;;;;;;;5045589;28;20211;-84
2022/01/12 09:03:41;;;;;;;13.88;11.40;;;-0.50;99.90;;;;;;5054314;28;20195;-84
2022/01/12 09:06:08;;;;;;;17.80;13.05;;;;;;;;;;5057013;28;20285;-84
2022/01/12 09:08:37;;;;;;;16.90;12.02;;;;;;;;;;5054609;28;20212;-84
2022/01/12 09:11:05;;;;;;;13.55;11.07;;;-0.50;99.90;;;;;;5048765;28;20254;-84
2022/01/12 09:13:33;;;;;;;15.27;11.25;;;;;;;;;;5051289;28;20192;-84
2022/01/12 09:16:06;;;;;;;13.80;11.00;;;;;;;;;;5056606;28;20208;-84
2022/01/12 09:18:33;;;;;;;15.05;10.88;;;;;;;;;;5055986;28;20269;-84
2022/01/12 09:21:00;;;;;;;20.75;14.82;;;-0.30;99.90;;;;;;5056757;28;20812;-84
2022/01/12 09:23:27;;;;;;;19.10;13.27;;;;;;;;;;5055018;28;20274;-85
2022/01/12 09:25:59;;;;;;;16.10;12.68;;;;;;;;;;5061311;28;20204;-83
2022/01/12 09:28:28;;;;;;;21.38;13.30;;;;;;;;;;5058974;28;20257;-84
2022/01/12 09:30:55;;;;;;;17.95;14.27;;;;;;;;;;5049481;28;20216;-84
2022/01/12 09:33:36;;;;;;;17.20;12.38;;;;;;;;;;5049306;28;20252;-85
2022/01/12 09:36:06;;;;;;;20.02;12.80;;;;;;;;;;5049628;28;20227;-85
2022/01/12 09:38:34;;;;;;;21.73;12.93;;;;;;;;;;5044581;28;20197;-85
2022/01/12 09:41:02;;;;;;;18.85;12.60;;;;;;;;;;5050158;28;20200;-84
2022/01/12 09:43:33;;;;;;;15.27;10.57;;;0.00;99.10;;;;;;5059193;28;20662;-85
2022/01/12 09:46:01;;;;;;;16.30;11.50;;;0.20;98.70;;;;;;5063594;28;20732;-83
2022/01/12 09:48:33;;;;;;;15.57;10.13;;;;;;;;;;5057099;28;20207;-83
2022/01/12 09:51:04;;;;;;;14.90;11.57;;;0.40;97.60;;;;;;5059981;28;20219;-83
2022/01/12 09:53:31;;;;;;;15.25;10.88;;;;;;;;;;5045719;28;20232;-83
2022/01/12 09:55:59;;;;;;;15.32;10.43;;;;;;;;;;5056408;28;20200;-83
2022/01/12 09:58:26;;;;;;;11.30;8.77;;;;;;;;;;5057693;28;20253;-83
2022/01/12 10:00:59;;;;;;;15.32;9.80;;;0.30;98.90;;;;;;5057938;28;20250;-83
2022/01/12 10:03:27;;;;;;;13.95;10.50;;;;;;;;;;5054067;28;20948;-83
2022/01/12 10:05:55;;;;;;;11.50;9.38;;;0.60;96.30;;;;;;5054691;28;20204;-83
2022/01/12 10:08:22;;;;;;;17.95;11.75;;;;;;;;;;5060294;28;20214;-83
2022/01/12 10:11:03;;;;;;;13.80;9.88;;;0.70;96.10;;;;;;5056603;28;20239;-83
2022/01/12 10:13:30;;;;;;;16.92;10.05;;;;;;;;;;5050284;28;20208;-83
2022/01/12 10:15:59;;;;;;;10.85;8.70;;;0.50;96.30;;;;;;5054011;28;20622;-82
2022/01/12 10:18:26;;;;;;;14.85;10.18;;;;;;;;;;5056759;28;20223;-83
2022/01/12 10:20:53;;;;;;;10.40;9.00;;;;;;;;;;5060157;28;20669;-83
2022/01/12 10:23:23;;;;;;;10.93;9.60;;;0.50;96.00;;;;;;5057795;28;20642;-83
2022/01/12 10:25:50;;;;;;;13.60;9.88;;;0.10;99.90;;;;;;5053141;28;20243;-84
2022/01/12 10:28:22;;;;;;;12.55;9.35;;;0.50;97.90;;;;;;5056770;28;20205;-84
2022/01/12 10:30:54;;;;;;;16.40;9.70;;;0.30;94.50;;;;;;5059949;28;20574;-83
2022/01/12 10:33:24;;;;;;;21.55;10.50;;;0.30;96.00;;;;;;5052589;28;20204;-83
2022/01/12 10:35:56;;;;;;;14.55;8.82;;;-0.10;95.90;;;;;;5058055;28;20210;-83
2022/01/12 10:38:23;;;;;;;11.07;9.20;;;;;;;;;;5054881;28;20200;-83
2022/01/12 10:40:51;;;;;;;14.23;10.80;;;;;;;;;;5054981;28;20204;-82
2022/01/12 10:43:34;;;;;;;12.70;9.75;;;0.20;95.60;;;;;;5056959;28;20196;-84
2022/01/12 10:46:03;;;;;;;15.77;11.52;;;0.10;96.20;;;;;;5058402;28;20696;-83
2022/01/12 10:48:40;;;;;;;11.98;9.68;;;0.10;96.50;;;;;;5050939;28;20306;-84
2022/01/12 10:51:07;;;;;;;15.88;11.57;;;;;;;;;;5052165;28;20361;-83
2022/01/12 10:53:36;;;;;;;13.30;10.43;;;-0.20;95.70;;;;;;5058333;28;20203;-84
2022/01/12 10:56:06;;;;;;;13.45;11.20;;;0.00;96.60;;;;;;5044553;28;20199;-84
2022/01/12 10:58:33;;;;;;;17.58;11.50;;;0.10;96.60;;;;;;5058975;28;20210;-84
2022/01/12 11:01:01;;;;;;;13.25;10.40;;;;;;;;;;5049842;28;20218;-83
2022/01/12 11:03:28;;;;;;;16.80;9.55;;;;;;;;;;5053896;28;20213;-83
2022/01/12 11:05:57;;;;;;;13.60;10.32;;;0.20;97.30;;;;;;5058327;28;20211;-82
2022/01/12 11:08:25;;;;;;;13.30;9.70;;;;;;;;;;5055956;28;20258;-83
2022/01/12 11:10:52;;;;;;;16.50;9.88;;;;;;;;;;5052922;28;20235;-83
2022/01/12 11:13:20;;;;;;;15.70;9.45;;;;;;;;;;5054349;28;20210;-83
2022/01/12 11:15:47;;;;;;;13.30;9.95;;;;;;;;;;5051050;28;20743;-83
2022/01/12 11:18:16;;;;;;;14.43;11.02;;;0.50;96.70;;;;;;5056934;28;20227;-83
2022/01/12 11:20:45;;;;;;;14.63;10.40;;;0.70;97.00;;;;;;5055205;28;20199;-85
2022/01/12 11:23:14;;;;;;;12.07;9.60;;;;;;;;;;5056167;28;20641;-83
2022/01/12 11:25:43;;;;;;;13.38;10.30;;;;;;;;;;5057268;28;20982;-83
2022/01/12 11:28:13;;;;;;;13.82;10.68;;;0.70;97.00;;;;;;5056702;28;20208;-82
2022/01/12 11:30:46;;;;;;;13.23;10.20;;;0.70;96.70;;;;;;5052797;28;20234;-83
2022/01/12 11:33:14;;;;;;;14.07;11.05;;;0.90;96.20;;;;;;5046464;28;20212;-84
2022/01/12 11:35:43;;;;;;;16.30;11.00;;;1.00;97.00;;;;;;5054777;28;20485;-83
2022/01/12 11:38:23;;;;;;;14.18;10.20;;;1.00;96.00;;;;;;5048393;28;20209;-83
2022/01/12 11:40:52;;;;;;;23.10;12.63;;;1.00;96.00;;;;;;5055878;28;20289;-83
2022/01/12 11:43:21;;;;;;;15.90;11.75;;;1.00;96.50;;;;;;5041871;28;20265;-83
2022/01/12 11:46:05;;;;;;;17.70;12.43;;;1.10;96.40;;;;;;5054735;28;20203;-83
2022/01/12 11:48:33;;;;;;;14.00;12.40;;;1.00;96.10;;;;;;5046591;28;20210;-83
2022/01/12 11:51:00;;;;;;;18.80;11.30;;;;;;;;;;5052663;28;20584;-83
2022/01/12 11:53:31;;;;;;;13.05;9.23;;;1.50;96.50;;;;;;5054117;28;20196;-83
2022/01/12 11:56:12;;;;;;;16.98;11.32;;;1.20;96.20;;;;;;5052658;28;20242;-82
2022/01/12 11:58:55;;;;;;;14.95;10.55;;;1.20;95.40;;;;;;5045728;28;20253;-83
2022/01/12 12:01:23;;;;;;;15.07;9.27;;;;;;;;;;5051347;28;20253;-83
2022/01/12 12:03:57;;;;;;;12.02;9.30;;;;;;;;;;5049741;28;20207;-83
2022/01/12 12:06:24;;;;;;;11.85;9.98;;;1.30;95.10;;;;;;5058804;28;20710;-82
2022/01/12 12:08:59;;;;;;;11.23;9.52;;;0.40;93.50;;;;;;5051039;28;20749;-82
2022/01/12 12:11:28;;;;;;;11.55;9.77;;;;;;;;;;5052609;28;20728;-82
2022/01/12 12:14:00;;;;;;;11.93;10.05;;;1.40;95.60;;;;;;5050123;28;20250;-83
2022/01/12 12:16:27;;;;;;;14.90;10.40;;;;;;;;;;5057027;28;20210;-82
2022/01/12 12:18:55;;;;;;;12.48;9.70;;;1.40;99.90;;;;;;5054678;28;20321;-82
2022/01/12 12:21:23;;;;;;;10.52;9.20;;;;;;;;;;5056291;28;20286;-82
2022/01/12 12:23:50;;;;;;;12.70;10.63;;;;;;;;;;5049868;28;20663;-83
2022/01/12 12:26:20;;;;;;;14.52;11.52;;;1.40;94.60;;;;;;5055699;28;20222;-84
2022/01/12 12:28:54;;;;;;;13.70;10.80;;;1.40;94.40;;;;;;5053387;28;20203;-83
2022/01/12 12:31:23;;;;;;;15.15;9.98;;;1.30;94.30;;;;;;5053570;28;20246;-83
2022/01/12 12:33:59;;;;;;;12.73;9.52;;;;;;;;;;5049396;28;20215;-83
2022/01/12 12:36:27;;;;;;;18.20;10.60;;;;;;;;;;5059952;28;20204;-83
2022/01/12 12:38:54;;;;;;;13.45;9.48;;;1.40;94.00;;;;;;5042264;28;20730;-82
2022/01/12 12:41:23;;;;;;;15.25;11.52;;;;;;;;;;5056842;28;20294;-82
2022/01/12 12:43:50;;;;;;;17.85;12.07;;;;;;;;;;5055757;28;20625;-82
2022/01/12 12:46:17;;;;;;;16.58;11.23;;;;;;;;;;5046812;28;20629;-83
2022/01/12 12:48:46;;;;;;;16.13;11.18;;;1.50;97.90;;;;;;5048397;28;20200;-82
2022/01/12 12:51:16;;;;;;;17.30;11.55;;;1.40;94.90;;;;;;5054081;28;20227;-82
2022/01/12 12:53:44;;;;;;;12.63;10.30;;;1.30;94.80;;;;;;5060869;28;20622;-82
2022/01/12 12:56:15;;;;;;;17.10;11.68;;;1.20;94.40;;;;;;5055622;28;20418;-82
2022/01/12 12:58:49;;;;;;;13.82;9.88;;;1.20;95.20;;;;;;5048931;28;20837;-83
2022/01/12 13:01:21;;;;;;;14.90;10.23;;;1.20;94.90;;;;;;5055293;28;20220;-82
2022/01/12 13:03:50;;;;;;;19.58;12.00;;;1.30;94.70;;;;;;5054106;28;20200;-83
2022/01/12 13:06:22;;;;;;;12.60;10.15;;;1.30;94.50;;;;;;5056712;28;20200;-83
2022/01/12 13:08:53;;;;;;;13.70;10.80;;;1.30;94.80;;;;;;5053867;28;20211;-82
2022/01/12 13:11:20;;;;;;;13.30;10.38;;;;;;;;;;5059384;28;20759;-83
2022/01/12 13:13:57;;;;;;;15.07;10.77;;;1.50;94.70;;;;;;5055731;28;20266;-83
2022/01/12 13:16:26;;;;;;;14.02;10.82;;;;;;;;;;5063243;28;20210;-82
2022/01/12 13:19:04;;;;;;;15.07;11.82;;;1.50;94.30;;;;;;5048788;28;20278;-83
2022/01/12 13:21:30;;;;;;;14.73;11.15;;;;;;;;;;5058756;28;20204;-82
2022/01/12 13:23:59;;;;;;;15.90;11.65;;;1.30;94.90;;;;;;5059607;28;20286;-83
2022/01/12 13:26:31;;;;;;;15.10;10.48;;;1.30;95.10;;;;;;5062111;28;20203;-82
2022/01/12 13:29:04;;;;;;;14.77;10.90;;;1.40;94.80;;;;;;5055426;28;20227;-83
2022/01/12 13:31:34;;;;;;;14.93;10.18;;;;;;;;;;5055562;28;20238;-83
2022/01/12 13:34:02;;;;;;;17.67;12.65;;;;;;;;;;5058148;28;20208;-82
2022/01/12 13:36:32;;;;;;;19.65;10.13;;;1.50;94.60;;;;;;5057061;28;20223;-83
2022/01/12 13:39:01;;;;;;;17.95;13.40;;;1.40;94.30;;;;;;5060718;28;20252;-83
2022/01/12 13:41:30;;;;;;;13.07;10.40;;;1.50;96.60;;;;;;5054985;28;20657;-83
2022/01/12 13:44:02;;;;;;;13.40;11.07;;;1.30;95.10;;;;;;5059775;28;20207;-83
2022/01/12 13:46:35;;;;;;;15.82;10.30;;;1.30;95.40;;;;;;5052462;28;20205;-83
2022/01/12 13:52:00;;;;;;;16.08;9.75;;;1.40;94.20;;;;;;5053117;28;20243;-83
2022/01/12 13:54:30;;;;;;;15.23;11.60;;;1.40;95.00;;;;;;5054284;28;20677;-82
2022/01/12 13:56:58;;;;;;;11.45;9.38;;;1.50;95.10;;;;;;5054832;28;20262;-83
2022/01/12 13:59:29;;;;;;;16.42;12.15;;;1.40;95.20;;;;;;5058419;28;20211;-83
2022/01/12 14:01:57;;;;;;;15.27;11.90;;;;;;;;;;5055646;28;20204;-83
2022/01/12 14:04:27;;;;;;;18.05;11.32;;;1.40;95.60;;;;;;5058461;28;20737;-83
2022/01/12 14:07:00;;;;;;;16.05;11.90;;;;;;;;;;5055089;28;20188;-83
2022/01/12 14:09:30;;;;;;;17.90;11.60;;;;;;;;;;5059652;28;20286;-83
2022/01/12 14:12:08;;;;;;;16.08;10.20;;;1.40;95.60;;;;;;5051418;28;20302;-84
2022/01/12 14:14:47;;;;;;;14.48;11.45;;;;;;;;;;5048142;28;20219;-84
2022/01/12 14:17:28;;;;;;;13.75;10.32;;;1.50;95.00;;;;;;5051670;28;20541;-83
2022/01/12 14:19:57;;;;;;;18.92;10.93;;;1.40;95.10;;;;;;5055062;28;20203;-83
2022/01/12 14:22:25;;;;;;;17.40;10.80;;;;;;;;;;5054641;28;20204;-83
2022/01/12 14:25:00;;;;;;;15.60;11.20;;;1.40;95.50;;;;;;5056979;28;20206;-82
2022/01/12 14:27:38;;;;;;;17.67;12.23;;;1.10;95.20;;;;;;5051755;28;20203;-84
2022/01/12 14:30:12;;;;;;;18.40;11.73;;;1.50;95.20;;;;;;5059765;28;20203;-83
2022/01/12 14:32:41;;;;;;;16.80;9.85;;;1.40;95.40;;;;;;5057637;28;20215;-83
2022/01/12 14:35:10;;;;;;;13.90;10.85;;;1.20;95.90;;;;;;5053719;28;20211;-82
2022/01/12 14:37:37;;;;;;;15.88;11.50;;;;;;;;;;5057969;28;20211;-83
2022/01/12 14:40:07;;;;;;;16.15;11.10;;;1.70;95.60;;;;;;5055138;28;20208;-83
2022/01/12 14:42:40;;;;;;;15.32;11.07;;;;;;;;;;5062055;28;20215;-83
2022/01/12 14:45:10;;;;;;;17.20;12.13;;;0.40;95.10;;;;;;5058068;28;20249;-83
2022/01/12 14:47:37;;;;;;;15.50;10.32;;;;;;;;;;5061519;28;20218;-83
2022/01/12 14:50:05;;;;;;;15.07;10.80;;;1.30;95.80;;;;;;5050770;28;20208;-83
2022/01/12 14:52:33;;;;;;;15.00;11.35;;;1.30;95.20;;;;;;5056884;28;20200;-83
2022/01/12 14:55:01;;;;;;;15.68;10.45;;;;;;;;;;5048113;28;20200;-84
2022/01/12 14:57:28;;;;;;;13.40;10.32;;;;;;;;;;5047164;28;20273;-83
2022/01/12 14:59:55;;;;;;;15.52;10.95;;;;;;;;;;5050603;28;20199;-84
2022/01/12 15:02:25;;;;;;;16.48;11.55;;;;;;;;;;5055097;28;20204;-83
2022/01/12 15:04:52;;;;;;;17.33;9.77;;;;;;;;;;5057539;28;20192;-83
2022/01/12 15:07:19;;;;;;;15.48;11.40;;;;;;;;;;5057665;28;20211;-83
2022/01/12 15:09:47;;;;;;;18.70;10.20;;;;;;;;;;5044381;28;20224;-83
2022/01/12 15:12:19;;;;;;;12.48;9.60;;;1.20;95.80;;;;;;5057443;28;20230;-84
2022/01/12 15:14:57;;;;;;;14.30;10.70;;;;;;;;;;5056703;28;20208;-83